Time;durP1;ratioP1;P1;durP2;ratioP2;P2;SDS_P1;SDS_P2;PMS_P1;PMS_P2;Temp;Humidity;BMP_temperature;BMP_pressure;BME280_temperature;BME280_humidity;BME280_pressure;Samples;Min_cycle;Max_cycle;Signal;HPM_P1;HPM_P2
2024/03/26 06:01:57;;;;;;;19.00;13.60;;;;;;;5.01;100.00;98917.37;107623;1277;22539;-46
2024/03/26 06:04:25;;;;;;;17.20;13.10;;;;;;;5.02;100.00;98923.08;108052;1277;22527;-46
2024/03/26 06:06:53;;;;;;;21.30;12.90;;;;;;;5.02;100.00;98926.87;108193;1278;26634;-54
2024/03/26 06:09:20;;;;;;;18.40;12.60;;;;;;;5.04;100.00;98929.13;107051;1278;25249;-47
2024/03/26 06:11:48;;;;;;;17.60;13.50;;;;;;;5.05;100.00;98933.11;108637;1278;22549;-54
2024/03/26 06:14:15;;;;;;;18.70;13.40;;;;;;;5.07;100.00;98941.58;109944;1273;22199;-54
2024/03/26 06:16:42;;;;;;;18.20;12.50;;;;;;;5.10;100.00;98940.02;110043;1278;22843;-46
2024/03/26 06:19:10;;;;;;;15.40;11.80;;;;;;;5.12;100.00;98941.41;109973;1278;22151;-53
2024/03/26 06:21:37;;;;;;;21.60;11.70;;;;;;;5.12;100.00;98943.31;110040;1277;22923;-46
2024/03/26 06:24:05;;;;;;;15.20;11.10;;;;;;;5.11;100.00;98950.05;108607;1260;22841;-54
2024/03/26 06:26:32;;;;;;;18.00;13.00;;;;;;;5.12;100.00;98952.65;108207;1277;22527;-54
2024/03/26 06:28:59;;;;;;;14.30;11.10;;;;;;;5.14;100.00;98958.16;109548;1277;23526;-48
2024/03/26 06:31:27;;;;;;;15.20;11.90;;;;;;;5.15;100.00;98961.27;110054;1274;22285;-45
2024/03/26 06:33:54;;;;;;;14.00;10.40;;;;;;;5.16;100.00;98961.98;109943;1277;22659;-52
2024/03/26 06:36:21;;;;;;;13.40;9.80;;;;;;;5.18;100.00;98968.54;110018;1277;22311;-53
2024/03/26 06:38:49;;;;;;;13.30;9.90;;;;;;;5.19;100.00;98973.55;110124;1276;22162;-46
2024/03/26 06:41:16;;;;;;;16.40;10.20;;;;;;;5.19;100.00;98976.49;110014;1278;22342;-52
2024/03/26 06:43:44;;;;;;;15.30;9.80;;;;;;;5.17;100.00;98978.75;110010;1278;22332;-53
2024/03/26 06:46:11;;;;;;;14.10;9.30;;;;;;;5.16;100.00;98983.92;110009;1278;22794;-53
2024/03/26 06:48:38;;;;;;;12.90;9.90;;;;;;;5.15;100.00;98984.77;109997;1278;22248;-46
2024/03/26 06:51:06;;;;;;;15.20;10.10;;;;;;;5.14;100.00;98989.80;110060;1278;22378;-47
2024/03/26 06:53:33;;;;;;;13.40;9.60;;;;;;;5.14;100.00;98997.58;110091;1277;22233;-47
2024/03/26 06:56:00;;;;;;;13.80;9.80;;;;;;;5.13;100.00;98999.83;110015;1277;22229;-54
2024/03/26 06:58:28;;;;;;;11.80;8.40;;;;;;;5.11;100.00;99003.27;110015;1275;22350;-53
2024/03/26 07:00:55;;;;;;;11.80;8.70;;;;;;;5.09;100.00;99010.00;109966;1277;23597;-46
2024/03/26 07:03:24;;;;;;;11.80;8.70;;;;;;;5.08;100.00;99014.85;110086;1276;22440;-52
2024/03/26 07:05:51;;;;;;;12.30;8.10;;;;;;;5.06;100.00;99018.32;110070;1276;23250;-54
2024/03/26 07:08:18;;;;;;;10.50;8.10;;;;;;;5.05;100.00;99021.60;110133;1276;22393;-52
2024/03/26 07:10:48;;;;;;;13.10;8.50;;;;;;;5.05;100.00;99024.02;110088;1276;22430;-52
2024/03/26 07:13:15;;;;;;;9.40;7.50;;;;;;;5.06;100.00;99025.56;110115;1273;23117;-53
2024/03/26 07:15:43;;;;;;;10.80;8.10;;;;;;;5.07;100.00;99031.62;110137;1270;22373;-53
2024/03/26 07:18:10;;;;;;;10.80;8.00;;;;;;;5.08;100.00;99031.44;110158;1276;22324;-54
2024/03/26 07:20:38;;;;;;;11.20;7.70;;;;;;;5.10;100.00;99033.17;110128;1276;22977;-54
2024/03/26 07:23:06;;;;;;;10.40;8.20;;;;;;;5.12;100.00;99035.27;110078;1276;22290;-53
2024/03/26 07:25:33;;;;;;;11.60;7.20;;;;;;;5.11;100.00;99038.89;110127;1276;22287;-53
2024/03/26 07:28:01;;;;;;;9.00;6.90;;;;;;;5.12;100.00;99043.56;110066;1276;23251;-53
2024/03/26 07:30:28;;;;;;;10.50;7.00;;;;;;;5.12;100.00;99044.77;110062;1270;22853;-46
2024/03/26 07:32:55;;;;;;;9.90;5.90;;;;;;;5.14;100.00;99045.63;110065;1276;22370;-47
2024/03/26 07:35:24;;;;;;;9.00;6.90;;;;;;;5.15;100.00;99051.34;110062;1276;23188;-47
2024/03/26 07:37:52;;;;;;;7.10;5.60;;;;;;;5.15;100.00;99053.40;110077;1276;22406;-46
2024/03/26 07:40:19;;;;;;;6.50;5.20;;;;;;;5.18;100.00;99055.85;110141;1276;22620;-53
2024/03/26 07:42:47;;;;;;;5.90;5.20;;;;;;;5.19;100.00;99057.39;110088;1270;22344;-54
2024/03/26 07:45:14;;;;;;;5.60;4.90;;;;;;;5.21;100.00;99058.96;110104;1276;22216;-53
2024/03/26 07:47:42;;;;;;;5.80;5.00;;;;;;;5.23;100.00;99062.42;110119;1276;22886;-51
2024/03/26 07:50:09;;;;;;;6.60;5.40;;;;;;;5.24;100.00;99061.21;110158;1272;22400;-46
2024/03/26 07:52:37;;;;;;;6.20;5.30;;;;;;;5.25;100.00;99063.80;110159;1273;22317;-46
2024/03/26 07:55:04;;;;;;;7.10;5.20;;;;;;;5.27;100.00;99069.34;110185;1269;23445;-53
2024/03/26 07:57:32;;;;;;;6.40;4.90;;;;;;;5.29;100.00;99073.85;110122;1276;22388;-53
2024/03/26 08:00:00;;;;;;;6.60;5.00;;;;;;;5.27;100.00;99076.08;110165;1268;23033;-52
2024/03/26 08:02:41;;;;;;;6.40;4.60;;;;;;;5.25;100.00;99076.59;110119;1272;22293;-52
2024/03/26 08:05:08;;;;;;;5.90;5.00;;;;;;;5.25;100.00;99082.99;108725;1276;23145;-53
2024/03/26 08:07:36;;;;;;;7.80;5.30;;;;;;;5.27;100.00;99086.46;108455;1275;23034;-46
2024/03/26 08:10:04;;;;;;;8.70;5.50;;;;;;;5.28;100.00;99091.14;108969;1276;24215;-47
2024/03/26 08:12:31;;;;;;;5.40;4.90;;;;;;;5.30;100.00;99094.77;110120;1276;22374;-46
2024/03/26 08:14:59;;;;;;;5.00;4.40;;;;;;;5.36;100.00;99096.85;109903;1275;23913;-54
2024/03/26 08:17:26;;;;;;;7.00;4.70;;;;;;;5.41;100.00;99100.84;109150;1273;22231;-53
2024/03/26 08:19:54;;;;;;;6.00;4.40;;;;;;;5.46;100.00;99100.85;109173;1272;22527;-52
2024/03/26 08:22:22;;;;;;;6.80;4.70;;;;;;;5.50;100.00;99108.30;109463;1270;22607;-54
2024/03/26 08:24:50;;;;;;;7.80;4.40;;;;;;;5.52;100.00;99111.23;109390;1272;22537;-53
2024/03/26 08:27:20;;;;;;;5.60;4.50;;;;;;;5.52;100.00;99110.55;108202;1277;22544;-53
2024/03/26 08:29:47;;;;;;;5.90;4.50;;;;;;;5.51;100.00;99114.02;107244;1270;22518;-54
2024/03/26 08:32:15;;;;;;;4.40;3.70;;;;;;;5.51;100.00;99121.10;109555;1272;25331;-54
2024/03/26 08:34:42;;;;;;;4.70;4.10;;;;;;;5.50;100.00;99121.95;108051;1277;22534;-47
2024/03/26 08:37:10;;;;;;;4.50;3.40;;;;;;;5.50;100.00;99124.73;108583;1271;24196;-56
2024/03/26 08:39:37;;;;;;;4.70;3.40;;;;;;;5.50;100.00;99126.45;109453;1275;22533;-45
2024/03/26 08:42:05;;;;;;;3.70;2.80;;;;;;;5.52;100.00;99132.52;110055;1277;22218;-45
2024/03/26 08:44:32;;;;;;;4.30;3.70;;;;;;;5.51;100.00;99130.96;110193;1276;22251;-50
2024/03/26 08:47:00;;;;;;;4.10;3.20;;;;;;;5.49;100.00;99136.14;110110;1272;22421;-54
2024/03/26 08:49:27;;;;;;;4.90;3.10;;;;;;;5.50;100.00;99136.83;110096;1276;22253;-46
2024/03/26 08:51:55;;;;;;;3.60;3.30;;;;;;;5.50;100.00;99133.54;110094;1276;23178;-46
2024/03/26 08:54:23;;;;;;;3.60;2.90;;;;;;;5.51;100.00;99133.55;110087;1276;22265;-45
2024/03/26 08:56:50;;;;;;;3.90;3.00;;;;;;;5.53;100.00;99136.32;110023;1270;22237;-51
2024/03/26 08:59:18;;;;;;;5.60;3.10;;;;;;;5.55;100.00;99142.71;109689;1272;23099;-46
2024/03/26 09:01:46;;;;;;;3.90;3.20;;;;;;;5.56;100.00;99140.82;109515;1276;22541;-46
2024/03/26 09:04:14;;;;;;;3.20;2.90;;;;;;;5.60;100.00;99141.34;109419;1272;22483;-46
2024/03/26 09:06:41;;;;;;;3.60;3.30;;;;;;;5.64;100.00;99139.09;109586;1271;24235;-47
2024/03/26 09:09:09;;;;;;;4.70;3.20;;;;;;;5.69;100.00;99147.41;108756;1272;24198;-53
2024/03/26 09:11:36;;;;;;;3.80;3.10;;;;;;;5.75;100.00;99144.48;108749;1275;23392;-54
2024/03/26 09:14:04;;;;;;;3.30;2.60;;;;;;;5.81;100.00;99148.12;110078;1270;23687;-53
2024/03/26 09:16:31;;;;;;;2.90;2.60;;;;;;;5.85;100.00;99150.54;110082;1271;23082;-53
2024/03/26 09:18:59;;;;;;;2.70;2.40;;;;;;;5.86;100.00;99151.95;110062;1272;22286;-52
2024/03/26 09:21:29;;;;;;;3.30;2.90;;;;;;;5.87;100.00;99156.43;110075;1270;22478;-52
2024/03/26 09:23:56;;;;;;;3.90;2.90;;;;;;;5.87;100.00;99157.65;110070;1269;22267;-52
2024/03/26 09:26:24;;;;;;;3.50;3.20;;;;;;;5.89;100.00;99156.95;110112;1276;22423;-53
2024/03/26 09:28:51;;;;;;;3.00;2.50;;;;;;;5.93;100.00;99159.06;110134;1275;22422;-52
2024/03/26 09:31:19;;;;;;;2.90;2.50;;;;;;;5.98;100.00;99163.57;109702;1270;22470;-46
2024/03/26 09:33:46;;;;;;;3.00;2.70;;;;;;;6.04;100.00;99169.28;109872;1269;22489;-46
2024/03/26 09:36:14;;;;;;;2.50;2.30;;;;;;;6.09;100.00;99171.02;108947;1272;24211;-54
2024/03/26 09:38:41;;;;;;;3.50;2.70;;;;;;;6.12;100.00;99170.49;109834;1276;22745;-53
2024/03/26 09:41:17;;;;;;;2.80;2.50;;;;;;;6.16;100.00;99175.86;108902;1272;23176;-52
2024/03/26 09:43:44;;;;;;;2.60;2.40;;;;;;;6.19;100.00;99177.77;109983;1272;22248;-52
2024/03/26 09:46:12;;;;;;;2.60;2.30;;;;;;;6.20;100.00;99181.23;107382;1272;22290;-52
2024/03/26 09:48:40;;;;;;;3.30;2.60;;;;;;;6.21;100.00;99180.02;108029;1276;23420;-53
2024/03/26 09:51:07;;;;;;;3.10;2.80;;;;;;;6.23;100.00;99182.45;107814;1269;22419;-54
2024/03/26 09:53:35;;;;;;;5.40;3.10;;;;;;;6.25;100.00;99187.80;110020;1273;22479;-53
2024/03/26 09:56:03;;;;;;;3.10;2.70;;;;;;;6.28;100.00;99185.05;109941;1270;22408;-52
2024/03/26 09:58:30;;;;;;;3.00;2.70;;;;;;;6.34;100.00;99189.52;110128;1276;22958;-46
2024/03/26 10:00:58;;;;;;;3.70;2.60;;;;;;;6.38;100.00;99186.25;110045;1273;22458;-45
2024/03/26 10:03:25;;;;;;;2.90;2.60;;;;;;;6.41;100.00;99192.83;110004;1276;22560;-45
2024/03/26 10:05:53;;;;;;;2.80;2.50;;;;;;;6.44;100.00;99198.38;109744;1272;339565;-45
2024/03/26 10:08:21;;;;;;;3.30;2.20;;;;;;;6.46;100.00;99202.88;110030;1269;22631;-46
2024/03/26 10:10:48;;;;;;;2.10;2.00;;;;;;;6.45;100.00;99203.73;110069;1272;23079;-46
2024/03/26 10:13:16;;;;;;;2.70;2.50;;;;;;;6.43;100.00;99208.06;110024;1276;22318;-46
2024/03/26 10:15:43;;;;;;;4.10;2.50;;;;;;;6.42;100.00;99211.52;110075;1276;22198;-47
2024/03/26 10:18:11;;;;;;;3.40;2.70;;;;;;;6.40;100.00;99215.00;109993;1272;22464;-46
2024/03/26 10:20:38;;;;;;;4.00;2.50;;;;;;;6.37;100.00;99223.83;110056;1272;22633;-47
2024/03/26 10:23:08;;;;;;;3.20;2.40;;;;;;;6.35;100.00;99228.16;110051;1277;22387;-52
2024/03/26 10:25:36;;;;;;;2.90;2.30;;;;;;;6.34;100.00;99228.16;110054;1277;22634;-52
2024/03/26 10:28:04;;;;;;;3.70;3.00;;;;;;;6.36;100.00;99232.14;109984;1277;22741;-45
2024/03/26 10:30:31;;;;;;;2.30;2.10;;;;;;;6.37;100.00;99235.25;109994;1277;22523;-54
2024/03/26 10:32:59;;;;;;;2.80;2.40;;;;;;;6.37;100.00;99238.36;109980;1272;22277;-53
2024/03/26 10:35:26;;;;;;;3.00;2.20;;;;;;;6.38;100.00;99244.44;110065;1276;22190;-46
2024/03/26 10:37:57;;;;;;;2.40;2.20;;;;;;;6.41;100.00;99245.66;110065;1276;22301;-46
2024/03/26 10:40:40;;;;;;;3.10;2.50;;;;;;;6.44;100.00;99246.70;109837;1276;22251;-53
2024/03/26 10:43:07;;;;;;;2.60;2.30;;;;;;;6.47;100.00;99247.91;109276;1257;25326;-47
2024/03/26 10:45:34;;;;;;;2.40;2.10;;;;;;;6.48;100.00;99246.86;107437;1277;22541;-46
2024/03/26 10:48:22;;;;;;;3.20;1.90;;;;;;;6.50;100.00;99245.65;108182;1277;25284;-53
2024/03/26 10:50:52;;;;;;;2.40;2.10;;;;;;;6.54;100.00;99249.46;107199;1276;22546;-48
2024/03/26 10:53:20;;;;;;;1.90;1.70;;;;;;;6.56;100.00;99252.41;107697;1277;22246;-52
2024/03/26 10:55:48;;;;;;;2.30;2.10;;;;;;;6.58;100.00;99250.85;110111;1277;22213;-46
2024/03/26 10:58:17;;;;;;;2.80;1.90;;;;;;;6.59;100.00;99255.52;110054;1277;22287;-47
2024/03/26 11:00:45;;;;;;;4.20;2.70;;;;;;;6.65;100.00;99261.25;110085;1277;22321;-52
2024/03/26 11:03:13;;;;;;;2.50;1.90;;;;;;;6.72;100.00;99263.83;110021;1277;22971;-52
2024/03/26 11:05:40;;;;;;;2.60;1.80;;;;;;;6.77;100.00;99264.00;110049;1277;22294;-52
2024/03/26 11:08:17;;;;;;;2.00;1.50;;;;;;;6.80;100.00;99265.22;110080;1277;22300;-46
2024/03/26 11:10:58;;;;;;;1.90;1.50;;;;;;;6.81;100.00;99270.75;110116;1277;22198;-53
2024/03/26 11:13:35;;;;;;;1.50;1.40;;;;;;;6.79;100.00;99273.20;110029;1277;22966;-53
2024/03/26 11:16:05;;;;;;;2.60;1.50;;;;;;;6.74;100.00;99276.67;110090;1270;22255;-54
2024/03/26 11:18:38;;;;;;;0.90;0.90;;;;;;;6.73;100.00;99282.90;110113;1260;23118;-53
2024/03/26 11:21:06;;;;;;;1.40;1.30;;;;;;;6.68;100.00;99283.77;110113;1270;23207;-52
2024/03/26 11:23:34;;;;;;;1.50;1.40;;;;;;;6.62;100.00;99285.34;110145;1276;22663;-47
2024/03/26 11:26:02;;;;;;;2.40;2.00;;;;;;;6.59;100.00;99284.63;110122;1270;23102;-46
2024/03/26 11:28:33;;;;;;;2.00;1.70;;;;;;;6.58;100.00;99290.18;108486;1272;23882;-54
2024/03/26 11:31:01;;;;;;;2.30;2.00;;;;;;;6.57;100.00;99295.03;110079;1272;22253;-54
2024/03/26 11:33:32;;;;;;;3.80;2.10;;;;;;;6.61;100.00;99296.77;110128;1272;22702;-45
2024/03/26 11:36:00;;;;;;;1.90;1.70;;;;;;;6.68;100.00;99301.79;110099;1271;22987;-45
2024/03/26 11:38:27;;;;;;;2.10;1.90;;;;;;;6.70;100.00;99304.91;110108;1273;22991;-54
2024/03/26 11:40:55;;;;;;;1.50;1.40;;;;;;;6.71;100.00;99302.64;109976;1276;22278;-45
2024/03/26 11:43:22;;;;;;;1.80;1.70;;;;;;;6.70;100.00;99305.26;110134;1276;22849;-45
2024/03/26 11:45:49;;;;;;;3.30;1.40;;;;;;;6.71;100.00;99312.17;109644;1276;22188;-54
2024/03/26 11:48:17;;;;;;;2.10;1.50;;;;;;;6.72;100.00;99320.33;108204;1276;25227;-53
2024/03/26 11:50:46;;;;;;;3.70;1.20;;;;;;;6.72;100.00;99325.35;110120;1270;22961;-53
2024/03/26 11:53:13;;;;;;;1.40;1.30;;;;;;;6.70;100.00;99329.87;108314;1276;22529;-54
2024/03/26 11:55:42;;;;;;;2.00;1.80;;;;;;;6.69;100.00;99334.03;110140;1276;22409;-47
2024/03/26 11:58:09;;;;;;;2.10;1.40;;;;;;;6.69;100.00;99336.11;107671;1272;22542;-53
2024/03/26 12:00:36;;;;;;;1.80;1.20;;;;;;;6.67;100.00;99342.85;110183;1276;22374;-52
2024/03/26 12:03:08;;;;;;;1.40;1.30;;;;;;;6.66;100.00;99348.73;109127;1277;22635;-46
2024/03/26 12:05:36;;;;;;;2.20;1.40;;;;;;;6.67;100.00;99352.39;107892;1276;22336;-45
2024/03/26 12:08:04;;;;;;;1.70;1.40;;;;;;;6.66;100.00;99352.56;109962;1275;22345;-46
2024/03/26 12:10:31;;;;;;;1.40;1.30;;;;;;;6.67;100.00;99356.04;110124;1276;22283;-47
2024/03/26 12:12:59;;;;;;;1.30;1.20;;;;;;;6.68;100.00;99361.41;110167;1269;22331;-53
2024/03/26 12:15:26;;;;;;;1.50;1.30;;;;;;;6.65;100.00;99362.60;110158;1275;22178;-52
2024/03/26 12:17:54;;;;;;;2.90;1.40;;;;;;;6.60;100.00;99365.38;110146;1275;22289;-53
2024/03/26 12:20:22;;;;;;;1.90;1.40;;;;;;;6.58;100.00;99369.36;110146;1271;22949;-52
2024/03/26 12:22:49;;;;;;;1.30;1.20;;;;;;;6.57;100.00;99369.54;109900;1273;22521;-46
2024/03/26 12:25:17;;;;;;;1.50;1.40;;;;;;;6.57;100.00;99373.88;109915;1272;23066;-46
2024/03/26 12:27:45;;;;;;;3.80;1.80;;;;;;;6.55;100.00;99377.33;110000;1276;22916;-45
2024/03/26 12:30:13;;;;;;;2.50;2.20;;;;;;;6.51;100.00;99382.01;110157;1269;22293;-52
2024/03/26 12:32:41;;;;;;;1.70;1.50;;;;;;;6.50;100.00;99383.23;110158;1276;22400;-52
2024/03/26 12:35:08;;;;;;;3.70;1.80;;;;;;;6.48;100.00;99389.27;110160;1276;22286;-54
2024/03/26 12:37:36;;;;;;;2.10;1.60;;;;;;;6.45;100.00;99394.46;110145;1272;22129;-54
2024/03/26 12:40:04;;;;;;;2.10;1.90;;;;;;;6.44;100.00;99396.02;108130;1276;23137;-54
2024/03/26 12:42:33;;;;;;;2.00;1.70;;;;;;;6.45;100.00;99396.20;107431;1277;24177;-54
2024/03/26 12:45:01;;;;;;;1.70;1.60;;;;;;;6.45;100.00;99400.70;106774;1276;24388;-53
2024/03/26 12:47:29;;;;;;;1.60;1.50;;;;;;;6.46;100.00;99404.34;108144;1274;22570;-46
2024/03/26 12:49:56;;;;;;;1.90;1.60;;;;;;;6.47;100.00;99409.36;108531;1276;25353;-47
2024/03/26 12:52:23;;;;;;;3.00;1.60;;;;;;;6.46;100.00;99410.58;107119;1277;22662;-49
2024/03/26 12:54:52;;;;;;;2.10;1.80;;;;;;;6.44;100.00;99415.95;108059;1276;22532;-45
2024/03/26 12:57:19;;;;;;;1.70;1.60;;;;;;;6.43;100.00;99422.17;108831;1276;23037;-53
2024/03/26 12:59:47;;;;;;;2.20;1.80;;;;;;;6.40;100.00;99423.20;110163;1276;22276;-53
2024/03/26 13:02:14;;;;;;;2.60;1.90;;;;;;;6.37;100.00;99426.30;110110;1277;22350;-53
2024/03/26 13:04:41;;;;;;;1.20;1.20;;;;;;;6.33;100.00;99427.00;110143;1276;22265;-54
